ePrivacy and GPDR Cookie Consent by Cookie Consent
EmailTwitter


Surface observations / Quebec / CYUL (71627)

Regions: Quebec | Canada | USA | Europe | France | UK | Elsewhere
Station
Display
Info & Location for CYUL (71627) | Help decoding METAR

Weather Conditions observed on 2022/05/20 at 22:00 UTC at MONTREAL INTL A, QB (CYUL)

Sky conditions: few clouds.

Temperature: 25.0 Celsius.

Dewpoint: 15.0 Celsius.

Relative Humidity: 54%

Humidex 29.

Winds: South-southeast at 31 km/h or 17 knots.

Mean Sea level Pressure: 100.52 kilopascals.

Altimeter Setting (QNH): 100.51 kilopascals or 29.68 inches of mercury.

Horizontal visibility: 30.00 statute miles or 48.00 kilometers.

Coded METAR:

CYUL 202200Z 16017KT 30SM FEW100 FEW250 25/15 A2968 RMK AC1CI2 AC TR SLP052

DENSITY ALT 1700FT=